Tremembe, Brazil
Current Conditions -  °F | °C
As of 7:00 AM on Wednesday 22 Oct 2014 (Local Time) from SBSJ Reporting Station
Overcast Overcast  
Wind Chill: 66°   Ceiling: 3000
Heat Index: 66°   Visibility: 6mi
Dew Point: 55°   Wind: 6mph
Humidity: 68%   Direction: 110°ESE
Pressure: 30.18"   Gusts: NA
Location:  22.96°S, 45.55°W
Report Text: SBSJ 220900Z 11005KT 9999 BKN030 OVC045 19/13 Q1022
Loading
Personal Weather Stations






























Interactive Weather Map
Tropical Storm Tracking
New forecast layout! Learn more

10-Day Weather Forecast

Advertisements
Track Severe Weather on mobile